대문
인공위성 심상 15 일 일기 예보기후바람 예보 사이클론 번개 공항FAQ 회보 프로젝트 소개
날씨 : 유럽 아프리카 북아메리카 남아메리카 아시아 오스트레일리아-오세아니아 다른 사람
언어 접촉

청도, 중국

위도: 36-04N, 경도: 120-20E, 해발고도: 77 m


METAR: ZSQD 021600Z 36005MPS 6000 BKN007 OVC030 19/18 Q1006 NOSIG
short-TAF: 구식인 (64662 시간)
long-TAF: ZSQD 021534Z 0218/0318 36004MPS 3500 -RA BR BKN030 TX29/0306Z TN18/21Z

시간: 00:41 (16:41 UTC)

날씨관측

보고는 전에 40 분 제출되었다: 16:00 UTC  
바람 10 kt  
온도 19°C
습도 94%
기압 1006 hPa
시정 6000 m
구름많음 고도에의 700 ft
흐림 고도에의 3000 ft

단위계

날씨예보

보고는 전에 38 분 제출되었다: 16:03 UTC  
예보기간[UTC] : 02일 18시 ~ 03일 18시
바람 8 kt  
시정 3500 m
구름많음 고도에의 3000 ft
빛 비 그리고 박무
이 위치에 정보는 a를 조건으로 하여 이다 포기
날씨 : 유럽 아프리카 북아메리카 남아메리카 아시아 오스트레일리아-오세아니아 다른 사람
인공위성 심상 15 일 일기 예보기후바람 예보 사이클론 번개 공항FAQ 언어 접촉 회보 프로젝트 소개